Time;durP1;ratioP1;P1;durP2;ratioP2;P2;SDS_P1;SDS_P2;PMS_P1;PMS_P2;Temp;Humidity;BMP_temperature;BMP_pressure;BME280_temperature;BME280_humidity;BME280_pressure;Samples;Min_cycle;Max_cycle;Signal;HPM_P1;HPM_P2
2021/03/30 00:01:18;;;;;;;4.00;2.70;;;;;;;8.25;70.20;102183.84;4985527;28;20226;-72
2021/03/30 00:03:44;;;;;;;6.70;3.20;;;;;;;8.24;70.27;102192.47;4984987;28;20241;-72
2021/03/30 00:06:13;;;;;;;5.43;3.03;;;;;;;8.17;70.56;102193.28;4986131;28;20204;-72
2021/03/30 00:08:39;;;;;;;5.70;2.90;;;;;;;8.13;70.91;102188.91;4984042;28;20202;-72
2021/03/30 00:11:07;;;;;;;4.57;2.97;;;;;;;8.08;70.84;102193.19;4988847;28;20210;-72
2021/03/30 00:13:33;;;;;;;5.90;2.93;;;;;;;8.02;71.28;102191.44;4981225;28;20276;-72
2021/03/30 00:16:00;;;;;;;5.30;2.77;;;;;;;8.01;71.30;102192.25;4987644;28;20747;-72
2021/03/30 00:18:26;;;;;;;5.30;2.90;;;;;;;7.93;71.53;102188.72;4982926;28;20205;-73
2021/03/30 00:20:53;;;;;;;6.33;2.87;;;;;;;7.89;71.82;102194.75;4985966;28;20252;-72
2021/03/30 00:23:20;;;;;;;7.13;3.23;;;;;;;7.83;71.85;102190.38;4978886;28;20648;-73
2021/03/30 00:25:46;;;;;;;5.40;2.77;;;;;;;7.78;71.94;102192.03;4983488;28;20559;-72
2021/03/30 00:28:12;;;;;;;8.73;3.00;;;;;;;7.71;71.98;102188.50;4990215;28;20193;-72
2021/03/30 00:30:38;;;;;;;6.60;3.23;;;;;;;7.64;72.48;102186.69;4984636;28;20229;-72
2021/03/30 00:33:05;;;;;;;5.97;2.80;;;;;;;7.59;72.54;102190.97;4977342;28;20624;-72
2021/03/30 00:35:31;;;;;;;3.30;2.67;;;;;;;7.51;72.75;102196.09;4974299;28;20205;-71
2021/03/30 00:37:57;;;;;;;5.40;3.10;;;;;;;7.43;73.82;102186.47;4984331;28;20263;-72
2021/03/30 00:40:24;;;;;;;8.20;3.20;;;;;;;7.34;74.28;102185.50;4979294;28;20225;-72
2021/03/30 00:42:53;;;;;;;4.13;2.90;;;;;;;7.29;74.41;102187.16;4982067;28;20296;-72
2021/03/30 00:45:19;;;;;;;5.33;2.77;;;;;;;7.20;74.52;102184.44;4980391;28;20221;-72
2021/03/30 00:47:47;;;;;;;5.50;3.00;;;;;;;7.14;75.04;102182.66;4983289;28;20725;-71
2021/03/30 00:50:17;;;;;;;4.30;3.13;;;;;;;7.08;75.29;102187.75;4989496;28;20697;-71
2021/03/30 00:52:43;;;;;;;6.83;3.07;;;;;;;7.03;75.43;102186.81;4979522;28;20209;-72
2021/03/30 00:55:28;;;;;;;4.20;2.90;;;;;;;7.02;75.58;102187.69;4987558;28;20814;-72
2021/03/30 00:57:55;;;;;;;5.03;3.27;;;;;;;6.99;75.61;102195.41;4984051;28;20205;-72
2021/03/30 01:00:22;;;;;;;9.90;3.77;;;;;;;6.96;75.46;102190.19;4985358;28;20216;-72
2021/03/30 01:02:49;;;;;;;6.57;3.50;;;;;;;6.94;75.90;102187.56;4972273;28;20198;-72
2021/03/30 01:05:16;;;;;;;8.33;3.50;;;;;;;6.94;75.90;102187.56;4978326;28;20228;-72
2021/03/30 01:08:06;;;;;;;7.47;3.63;;;;;;;6.91;75.94;102186.66;4981181;28;20236;-72
2021/03/30 01:10:44;;;;;;;5.00;2.87;;;;;;;6.85;76.23;102194.34;4981473;28;20298;-72
2021/03/30 01:13:27;;;;;;;6.27;3.10;;;;;;;6.80;76.21;102187.34;4987181;28;20209;-72
2021/03/30 01:16:02;;;;;;;6.07;3.30;;;;;;;6.78;76.58;102189.06;4982188;28;20201;-72
2021/03/30 01:18:32;;;;;;;6.03;3.60;;;;;;;6.74;76.74;102192.47;4984544;28;20296;-72
2021/03/30 01:21:29;;;;;;;5.47;3.50;;;;;;;6.69;76.53;102186.34;4979130;28;20828;-72
2021/03/30 01:23:59;;;;;;;6.77;3.20;;;;;;;6.64;76.97;102190.59;4988636;28;20264;-72
2021/03/30 01:26:55;;;;;;;6.83;3.47;;;;;;;6.61;77.24;102190.53;4984265;28;20508;-72
2021/03/30 01:29:38;;;;;;;7.13;3.53;;;;;;;6.59;77.70;102189.63;4979545;28;20213;-71
2021/03/30 01:32:10;;;;;;;6.10;3.03;;;;;;;6.57;78.09;102189.63;4981134;28;20205;-72
2021/03/30 01:34:38;;;;;;;6.43;3.20;;;;;;;6.57;77.97;102183.56;4984943;28;20205;-72
2021/03/30 01:37:05;;;;;;;5.30;3.77;;;;;;;6.55;77.91;102186.13;4983112;28;20769;-72
2021/03/30 01:39:34;;;;;;;4.00;3.07;;;;;;;6.60;77.60;102186.22;4986141;28;20205;-72
2021/03/30 01:42:00;;;;;;;7.37;4.07;;;;;;;6.57;77.47;102189.63;4983550;28;20236;-72
2021/03/30 01:44:27;;;;;;;5.63;3.70;;;;;;;6.59;77.41;102182.72;4982777;28;20218;-72
2021/03/30 01:46:55;;;;;;;5.43;3.47;;;;;;;6.56;77.23;102184.41;4981229;28;20216;-72
2021/03/30 01:49:23;;;;;;;9.13;3.60;;;;;;;6.59;77.82;102181.88;4983364;28;20198;-71
2021/03/30 01:51:51;;;;;;;9.63;4.00;;;;;;;6.58;77.04;102190.50;4987061;28;20193;-72
2021/03/30 01:54:18;;;;;;;6.53;3.30;;;;;;;6.57;77.00;102187.03;4983553;28;20669;-72
2021/03/30 01:56:45;;;;;;;6.00;3.43;;;;;;;6.57;76.95;102187.03;4986839;28;20202;-73
2021/03/30 01:59:14;;;;;;;6.07;3.43;;;;;;;6.56;76.86;102187.00;4986269;28;20271;-72
2021/03/30 02:01:44;;;;;;;5.93;3.30;;;;;;;6.53;76.96;102184.38;4980558;28;20244;-72
2021/03/30 02:04:11;;;;;;;6.07;3.33;;;;;;;6.52;76.90;102190.41;4988689;28;20657;-72
2021/03/30 02:06:38;;;;;;;6.60;3.10;;;;;;;6.48;76.99;102192.06;4996580;28;20625;-72
2021/03/30 02:09:08;;;;;;;5.87;3.20;;;;;;;6.47;77.03;102189.44;4983416;28;20224;-73
2021/03/30 02:11:42;;;;;;;6.37;3.50;;;;;;;6.43;77.23;102189.41;4986708;28;20221;-73
2021/03/30 02:14:08;;;;;;;7.10;3.07;;;;;;;6.41;77.60;102191.09;4986865;28;20201;-72
2021/03/30 02:16:40;;;;;;;5.60;3.30;;;;;;;6.40;77.64;102191.97;4977283;28;20292;-72
2021/03/30 02:19:12;;;;;;;5.27;3.63;;;;;;;6.37;77.94;102191.91;4983051;28;20238;-72
2021/03/30 02:21:43;;;;;;;4.97;3.63;;;;;;;6.33;77.96;102191.81;4983423;28;20236;-72
2021/03/30 02:24:12;;;;;;;4.47;2.70;;;;;;;6.27;78.09;102191.72;4980694;28;20228;-72
2021/03/30 02:26:40;;;;;;;8.03;3.73;;;;;;;6.20;78.32;102193.34;4983513;28;20185;-72
2021/03/30 02:29:10;;;;;;;6.27;3.20;;;;;;;6.12;78.67;102187.16;4984218;28;20284;-72
2021/03/30 02:31:38;;;;;;;7.50;3.00;;;;;;;6.05;78.75;102186.16;4987780;28;20233;-72
2021/03/30 02:34:08;;;;;;;4.67;3.40;;;;;;;6.00;79.28;102190.41;4975705;28;20198;-72
2021/03/30 02:36:35;;;;;;;5.77;3.30;;;;;;;5.97;79.38;102192.94;4985521;28;20236;-72
2021/03/30 02:39:06;;;;;;;8.60;3.37;;;;;;;5.93;79.41;102196.25;4976369;28;20213;-73
2021/03/30 02:41:33;;;;;;;6.73;3.30;;;;;;;5.88;79.76;102189.31;4980705;28;20303;-71
2021/03/30 02:44:01;;;;;;;5.70;3.30;;;;;;;5.86;79.48;102192.72;4985983;28;20301;-73
2021/03/30 02:46:29;;;;;;;6.47;4.00;;;;;;;5.85;79.76;102196.13;4983556;28;20205;-71
2021/03/30 02:48:55;;;;;;;6.43;3.67;;;;;;;5.80;80.39;102185.69;4986664;28;20205;-72
2021/03/30 02:51:24;;;;;;;8.23;3.57;;;;;;;5.78;80.13;102196.88;4982544;28;20300;-71
2021/03/30 02:53:52;;;;;;;6.63;3.73;;;;;;;5.73;80.44;102196.78;4983386;28;20233;-71
2021/03/30 02:56:18;;;;;;;6.60;3.50;;;;;;;5.70;80.59;102199.31;4976009;28;20209;-72
2021/03/30 02:58:44;;;;;;;6.20;3.07;;;;;;;5.67;80.67;102197.53;4983465;28;20194;-72
2021/03/30 03:01:11;;;;;;;8.67;4.03;;;;;;;5.66;80.96;102192.31;4985978;28;20236;-72
2021/03/30 03:03:39;;;;;;;7.93;3.47;;;;;;;5.63;81.25;102193.16;4983191;28;20757;-72
2021/03/30 03:06:06;;;;;;;4.77;3.47;;;;;;;5.59;81.11;102188.75;4978283;28;20213;-72
2021/03/30 03:08:34;;;;;;;6.73;3.87;;;;;;;5.56;81.13;102198.16;4978834;28;20248;-72
2021/03/30 03:11:00;;;;;;;6.37;3.93;;;;;;;5.52;81.52;102197.22;4985229;28;20863;-72
2021/03/30 03:13:28;;;;;;;7.43;3.60;;;;;;;5.48;81.71;102204.06;4981286;28;20611;-72
2021/03/30 03:15:54;;;;;;;5.90;3.80;;;;;;;5.44;81.41;102202.25;4982128;28;20327;-73
2021/03/30 03:18:21;;;;;;;7.73;3.80;;;;;;;5.43;81.58;102203.09;4977530;28;20205;-72
2021/03/30 03:20:48;;;;;;;9.67;3.67;;;;;;;5.43;81.71;102205.69;4983731;28;20232;-72
2021/03/30 03:23:14;;;;;;;6.13;4.13;;;;;;;5.44;81.56;102207.44;4985647;28;20198;-72
2021/03/30 03:25:43;;;;;;;7.50;3.50;;;;;;;5.44;81.54;102201.41;4978692;28;20225;-72
2021/03/30 03:28:10;;;;;;;5.40;3.80;;;;;;;5.45;82.13;102206.59;4986896;28;20194;-72
2021/03/30 03:30:39;;;;;;;5.40;3.33;;;;;;;5.45;81.96;102208.31;4980742;28;20233;-72
2021/03/30 03:33:07;;;;;;;5.40;3.57;;;;;;;5.48;81.77;102210.97;4989524;28;20200;-73
2021/03/30 03:35:33;;;;;;;7.57;4.13;;;;;;;5.48;81.85;102206.66;4985819;28;20508;-71
2021/03/30 03:38:00;;;;;;;7.20;4.00;;;;;;;5.53;81.88;102211.06;4988865;28;20792;-72
2021/03/30 03:40:26;;;;;;;8.07;4.03;;;;;;;5.56;81.79;102219.75;4988465;28;20227;-73
2021/03/30 03:42:53;;;;;;;7.70;4.00;;;;;;;5.59;81.64;102216.34;4988036;28;20421;-72
2021/03/30 03:45:19;;;;;;;8.07;3.87;;;;;;;5.61;81.61;102215.53;4990258;28;20218;-73
2021/03/30 03:47:45;;;;;;;9.40;3.90;;;;;;;5.60;81.48;102215.50;4982849;28;20259;-73
2021/03/30 03:50:12;;;;;;;5.73;4.00;;;;;;;5.59;81.85;102209.44;4984458;28;20236;-72
2021/03/30 03:52:42;;;;;;;7.13;3.97;;;;;;;5.62;81.65;102213.81;4983748;28;20197;-72
2021/03/30 03:55:10;;;;;;;8.17;4.17;;;;;;;5.63;81.66;102225.94;4986092;28;20200;-72
2021/03/30 03:57:43;;;;;;;6.13;3.73;;;;;;;5.65;81.65;102221.66;4986857;28;20718;-72
2021/03/30 04:00:11;;;;;;;9.07;4.17;;;;;;;5.64;81.78;102220.75;4984731;28;20271;-72
2021/03/30 04:02:44;;;;;;;6.40;3.47;;;;;;;5.68;81.59;102224.28;4986636;28;20205;-72
2021/03/30 04:05:14;;;;;;;7.47;3.50;;;;;;;5.70;81.61;102225.22;4984555;28;20229;-72
2021/03/30 04:07:47;;;;;;;7.57;4.67;;;;;;;5.69;81.48;102221.72;4994409;28;20209;-72
2021/03/30 04:10:16;;;;;;;17.53;6.23;;;;;;;5.68;81.67;102229.44;4984088;28;20229;-72
2021/03/30 04:12:43;;;;;;;23.27;11.00;;;;;;;5.67;81.69;102226.00;4985652;28;20209;-72
2021/03/30 04:15:11;;;;;;;44.33;17.97;;;;;;;5.69;81.53;102226.03;4981216;28;20206;-72
2021/03/30 04:17:40;;;;;;;50.53;21.10;;;;;;;5.66;81.63;102221.69;4988386;28;20569;-72
2021/03/30 04:20:09;;;;;;;44.10;19.97;;;;;;;5.68;81.66;102219.09;4990601;28;20243;-73
2021/03/30 04:22:35;;;;;;;50.03;21.47;;;;;;;5.64;81.84;102222.47;4983612;28;20662;-72
2021/03/30 04:25:01;;;;;;;57.60;21.90;;;;;;;5.63;81.85;102225.94;4985261;28;21457;-72
2021/03/30 04:27:27;;;;;;;55.67;21.63;;;;;;;5.61;82.19;102225.91;4979056;28;20201;-72
2021/03/30 04:29:53;;;;;;;51.90;21.13;;;;;;;5.61;82.16;102225.91;4993246;28;20343;-72
2021/03/30 04:32:20;;;;;;;47.43;18.90;;;;;;;5.60;82.40;102231.91;4983824;28;20296;-72
2021/03/30 04:34:46;;;;;;;44.20;16.50;;;;;;;5.61;82.76;102235.34;4991920;28;20205;-72
2021/03/30 04:37:12;;;;;;;29.23;13.03;;;;;;;5.68;83.33;102237.22;4986224;28;20597;-72
2021/03/30 04:39:38;;;;;;;17.67;9.20;;;;;;;5.71;82.78;102236.41;4982525;28;20205;-72
2021/03/30 04:42:05;;;;;;;24.47;11.23;;;;;;;5.75;82.69;102236.53;4989994;28;20218;-72
2021/03/30 04:44:31;;;;;;;23.07;9.93;;;;;;;5.80;82.33;102242.63;4984794;28;20223;-72
2021/03/30 04:46:58;;;;;;;21.57;9.97;;;;;;;5.83;82.15;102245.28;5002613;28;20543;-72
2021/03/30 04:49:25;;;;;;;23.83;9.27;;;;;;;5.90;82.12;102245.44;4982862;28;20213;-72
2021/03/30 04:51:51;;;;;;;19.27;8.73;;;;;;;5.94;82.35;102247.22;4987357;28;20299;-72
2021/03/30 04:54:17;;;;;;;17.67;8.50;;;;;;;5.97;81.89;102253.34;4979531;28;20571;-72
2021/03/30 04:56:43;;;;;;;13.53;7.30;;;;;;;6.01;81.96;102262.06;4984721;28;20209;-72
2021/03/30 04:59:09;;;;;;;13.40;6.10;;;;;;;6.03;81.57;102256.06;4981007;28;20210;-72
2021/03/30 05:01:35;;;;;;;11.53;6.70;;;;;;;6.04;81.67;102260.41;4981013;28;20228;-72
2021/03/30 05:04:01;;;;;;;12.73;5.73;;;;;;;6.07;81.41;102259.59;4985207;28;20194;-72
2021/03/30 05:06:28;;;;;;;15.17;5.60;;;;;;;6.06;81.40;102268.19;4983606;28;20219;-72
2021/03/30 05:08:54;;;;;;;11.33;5.93;;;;;;;6.04;81.39;102262.13;4988824;28;20205;-73
2021/03/30 05:11:20;;;;;;;9.73;4.87;;;;;;;6.00;81.56;102257.75;4987745;28;20260;-72
2021/03/30 05:13:46;;;;;;;9.77;5.13;;;;;;;5.97;81.89;102268.03;4986257;28;20204;-72
2021/03/30 05:16:12;;;;;;;9.07;4.93;;;;;;;5.95;81.56;102273.13;4987219;28;20581;-73
2021/03/30 05:18:38;;;;;;;8.00;4.93;;;;;;;5.95;81.67;102269.69;4981907;28;20212;-72
2021/03/30 05:21:05;;;;;;;10.57;5.40;;;;;;;5.93;81.65;102276.53;4998019;28;20245;-72
2021/03/30 05:23:32;;;;;;;8.90;5.17;;;;;;;5.91;81.51;102276.53;4981248;28;20201;-71
2021/03/30 05:25:58;;;;;;;11.13;5.00;;;;;;;5.88;81.61;102276.47;4984504;28;20661;-72
2021/03/30 05:28:24;;;;;;;9.10;4.70;;;;;;;5.85;81.64;102277.25;4982400;28;20210;-72
2021/03/30 05:30:50;;;;;;;11.53;4.33;;;;;;;5.86;81.67;102272.97;4986370;28;20283;-72
2021/03/30 05:33:16;;;;;;;9.13;4.63;;;;;;;5.84;81.78;102274.63;4984999;28;20237;-72
2021/03/30 05:35:42;;;;;;;8.67;4.70;;;;;;;5.84;81.73;102274.63;4983437;28;20209;-72
2021/03/30 05:38:09;;;;;;;7.37;4.70;;;;;;;5.85;81.74;102281.56;4979943;28;20535;-72
2021/03/30 05:40:36;;;;;;;7.77;4.10;;;;;;;5.84;81.71;102277.22;4984705;28;20221;-72
2021/03/30 05:43:02;;;;;;;8.73;4.27;;;;;;;5.85;82.03;102285.03;4987311;28;20666;-72
2021/03/30 05:45:28;;;;;;;7.60;3.97;;;;;;;5.88;81.91;102281.63;4977048;28;20228;-72
2021/03/30 05:47:55;;;;;;;8.93;4.43;;;;;;;5.89;81.54;102280.78;4986387;28;20556;-72
2021/03/30 05:50:23;;;;;;;8.77;4.40;;;;;;;5.95;81.25;102282.63;4990530;28;20225;-71
2021/03/30 05:52:53;;;;;;;9.10;4.07;;;;;;;5.98;81.36;102275.84;4983091;28;20275;-72
2021/03/30 05:55:24;;;;;;;6.50;4.23;;;;;;;6.06;81.17;102291.50;4981758;28;20216;-72
2021/03/30 05:57:53;;;;;;;9.23;3.90;;;;;;;6.09;81.24;102286.38;4977884;28;20243;-72
2021/03/30 06:00:22;;;;;;;8.23;3.90;;;;;;;6.20;80.61;102289.19;4988961;28;20240;-71
2021/03/30 06:02:51;;;;;;;8.10;4.03;;;;;;;6.23;80.30;102290.09;4978871;28;20645;-72
2021/03/30 06:05:17;;;;;;;9.37;3.87;;;;;;;6.36;80.43;102298.09;4987100;28;20232;-72
2021/03/30 06:07:44;;;;;;;7.10;4.03;;;;;;;6.49;79.92;102301.78;4980282;28;20959;-72
2021/03/30 06:10:13;;;;;;;7.53;4.50;;;;;;;6.56;80.24;102296.75;4988215;28;20728;-72
2021/03/30 06:12:39;;;;;;;8.67;4.53;;;;;;;6.68;80.01;102300.38;4984959;28;20578;-72
2021/03/30 06:15:08;;;;;;;6.77;4.43;;;;;;;6.76;79.91;102298.78;4982738;28;20559;-71
2021/03/30 06:17:43;;;;;;;8.47;4.23;;;;;;;6.89;79.20;102305.03;4984401;28;20280;-72
2021/03/30 06:20:10;;;;;;;9.53;4.87;;;;;;;7.01;79.05;102306.09;4983310;28;20311;-72
2021/03/30 06:22:48;;;;;;;8.60;3.90;;;;;;;7.13;78.60;102305.41;4985229;28;20563;-73
2021/03/30 06:25:42;;;;;;;10.20;4.83;;;;;;;7.27;78.60;102305.63;4980356;28;20227;-72
2021/03/30 06:28:14;;;;;;;7.20;4.63;;;;;;;7.44;77.73;102311.06;4987322;28;20281;-73
2021/03/30 06:30:57;;;;;;;9.57;4.47;;;;;;;7.53;77.89;102315.50;4979660;28;20257;-72
2021/03/30 06:33:24;;;;;;;9.50;4.20;;;;;;;7.65;77.99;102314.75;4986008;28;20232;-71
2021/03/30 06:35:51;;;;;;;7.37;4.10;;;;;;;7.80;77.43;102322.75;4981990;28;20315;-72
2021/03/30 06:38:17;;;;;;;7.67;4.50;;;;;;;7.96;76.46;102323.81;4985717;28;20193;-72
2021/03/30 06:40:44;;;;;;;8.77;4.50;;;;;;;8.09;75.91;102330.91;4983757;28;20232;-72
2021/03/30 06:45:59;;;;;;;6.70;4.47;;;;;;;8.40;75.28;102328.63;4988075;28;20233;-72
2021/03/30 06:48:26;;;;;;;5.83;3.80;;;;;;;8.56;74.52;102327.06;4978730;28;20642;-72
2021/03/30 06:50:52;;;;;;;8.00;4.23;;;;;;;8.63;74.27;102322.81;4986597;28;20338;-72
2021/03/30 06:53:18;;;;;;;8.57;4.27;;;;;;;8.80;73.24;102331.63;4983114;28;20295;-73
2021/03/30 06:55:49;;;;;;;7.30;4.40;;;;;;;8.96;72.11;102336.97;4982752;28;20186;-72
2021/03/30 06:58:16;;;;;;;8.33;3.97;;;;;;;9.13;70.97;102337.97;4984515;28;20205;-72
2021/03/30 07:00:44;;;;;;;9.13;4.07;;;;;;;9.26;69.75;102347.59;4987157;28;20224;-72
2021/03/30 07:03:12;;;;;;;6.63;3.90;;;;;;;9.39;70.19;102345.94;4978600;28;20198;-72
2021/03/30 07:05:40;;;;;;;10.30;3.90;;;;;;;9.52;69.28;102346.88;4985741;28;20281;-72
2021/03/30 07:08:08;;;;;;;6.67;4.20;;;;;;;9.67;68.81;102353.91;4990374;28;20203;-72
2021/03/30 07:10:37;;;;;;;6.70;4.27;;;;;;;9.77;67.72;102355.69;4981096;28;20275;-72
2021/03/30 07:13:04;;;;;;;7.93;4.37;;;;;;;9.91;67.16;102341.88;4986432;28;20202;-72
2021/03/30 07:15:31;;;;;;;5.43;3.50;;;;;;;10.06;67.56;102344.53;4977208;28;20354;-72
2021/03/30 07:18:07;;;;;;;10.07;4.87;;;;;;;10.20;65.98;102354.97;4988439;28;20213;-72
2021/03/30 07:20:42;;;;;;;8.57;4.50;;;;;;;10.44;64.69;102346.38;4982956;28;21041;-72
2021/03/30 07:23:11;;;;;;;6.97;4.07;;;;;;;10.56;63.92;102354.22;4986729;28;20200;-73
2021/03/30 07:25:42;;;;;;;6.97;4.00;;;;;;;10.73;63.63;102353.38;4986378;28;20240;-72
2021/03/30 07:28:17;;;;;;;6.83;4.57;;;;;;;10.79;64.46;102345.56;4986685;28;20208;-72
2021/03/30 07:30:46;;;;;;;6.73;4.10;;;;;;;10.96;62.52;102362.09;4991345;28;20992;-73
2021/03/30 07:33:20;;;;;;;8.33;4.20;;;;;;;11.05;62.88;102363.84;4985496;28;20201;-72
2021/03/30 07:35:47;;;;;;;6.67;4.40;;;;;;;11.17;61.52;102362.97;4988235;28;20616;-72
2021/03/30 07:38:17;;;;;;;7.73;3.80;;;;;;;11.32;61.94;102369.91;4987242;28;20300;-73
2021/03/30 07:40:44;;;;;;;14.43;4.93;;;;;;;11.49;61.07;102362.91;4987281;28;20225;-73
2021/03/30 07:43:13;;;;;;;8.20;3.87;;;;;;;11.65;61.29;102365.47;4984208;28;20201;-72
2021/03/30 07:45:41;;;;;;;8.83;4.20;;;;;;;11.68;60.71;102361.13;4986612;28;20220;-72
2021/03/30 07:48:10;;;;;;;6.90;4.03;;;;;;;11.82;59.98;102366.28;4985341;28;20605;-72
2021/03/30 07:50:54;;;;;;;8.00;4.43;;;;;;;11.91;59.02;102374.13;4984484;28;20934;-72
2021/03/30 07:53:44;;;;;;;6.27;4.17;;;;;;;11.98;58.65;102371.47;4983230;28;20205;-72
2021/03/30 07:56:12;;;;;;;7.80;4.20;;;;;;;12.21;59.37;102376.63;4983999;28;20198;-72
2021/03/30 07:58:40;;;;;;;8.80;4.67;;;;;;;12.46;57.51;102375.59;4984276;28;20225;-72
2021/03/30 08:01:07;;;;;;;7.90;4.83;;;;;;;12.55;57.20;102373.81;4979672;28;20219;-72
2021/03/30 08:03:35;;;;;;;7.83;4.40;;;;;;;12.72;57.09;102371.94;4983371;28;20225;-72
2021/03/30 08:06:27;;;;;;;7.40;4.27;;;;;;;12.87;57.96;102374.44;4983470;28;20252;-72
2021/03/30 08:08:58;;;;;;;6.07;3.87;;;;;;;13.01;55.87;102373.44;4988383;28;20197;-72
2021/03/30 08:11:46;;;;;;;9.00;4.60;;;;;;;13.15;54.50;102384.66;4983429;28;20221;-72
2021/03/30 08:14:40;;;;;;;5.87;4.33;;;;;;;13.27;55.91;102376.69;4983451;28;20210;-73
2021/03/30 08:17:09;;;;;;;8.67;4.33;;;;;;;13.24;54.75;102379.38;4981383;28;20201;-73
2021/03/30 08:19:36;;;;;;;7.63;4.50;;;;;;;13.40;54.79;102384.47;4986089;28;20206;-73
2021/03/30 08:22:04;;;;;;;5.67;4.13;;;;;;;13.52;54.43;102380.88;4989921;28;20202;-72
2021/03/30 08:24:54;;;;;;;8.47;4.60;;;;;;;13.56;54.63;102382.56;4985359;28;21007;-72
2021/03/30 08:27:44;;;;;;;7.07;4.27;;;;;;;13.69;55.47;102384.16;4987326;28;20212;-72
2021/03/30 08:30:30;;;;;;;9.33;4.80;;;;;;;13.82;54.52;102382.28;4969013;28;20261;-72
2021/03/30 08:32:58;;;;;;;8.67;5.33;;;;;;;14.01;53.18;102377.69;5000249;28;20223;-72
2021/03/30 08:35:37;;;;;;;12.57;7.20;;;;;;;14.26;51.49;102391.31;4981016;28;20240;-72
2021/03/30 08:38:05;;;;;;;7.10;4.90;;;;;;;14.34;50.27;102393.88;4989219;28;20632;-73
2021/03/30 08:40:42;;;;;;;9.63;6.10;;;;;;;14.62;49.66;102402.25;4980400;28;20225;-73
2021/03/30 08:43:21;;;;;;;10.30;6.23;;;;;;;14.72;46.82;102411.72;4986415;28;20579;-73
2021/03/30 08:46:03;;;;;;;10.67;6.00;;;;;;;15.08;44.18;102414.66;4981822;28;20229;-73
2021/03/30 08:48:35;;;;;;;15.33;7.73;;;;;;;15.18;43.41;102417.09;4984624;28;20209;-72
2021/03/30 08:51:01;;;;;;;11.53;6.50;;;;;;;15.28;47.04;102414.28;4985770;28;20985;-72
2021/03/30 08:53:30;;;;;;;12.90;7.57;;;;;;;15.36;43.53;102423.84;4987343;28;20665;-72
2021/03/30 08:55:56;;;;;;;8.07;5.20;;;;;;;15.32;44.63;102418.63;4985132;28;20209;-72
2021/03/30 08:58:26;;;;;;;11.10;6.50;;;;;;;15.41;44.16;102419.34;4981014;28;20569;-73
2021/03/30 09:00:54;;;;;;;12.67;7.97;;;;;;;15.55;45.86;102412.09;4979310;28;20268;-72
2021/03/30 09:03:27;;;;;;;12.30;7.27;;;;;;;15.69;43.74;102414.47;4981173;28;20203;-73
2021/03/30 09:05:53;;;;;;;7.43;5.10;;;;;;;15.76;44.13;102405.59;4981415;28;20212;-73
2021/03/30 09:08:35;;;;;;;7.57;4.93;;;;;;;15.74;43.93;102415.22;4979424;28;20211;-73
2021/03/30 09:11:18;;;;;;;8.60;5.03;;;;;;;15.76;44.54;102408.22;4989440;28;20632;-72
2021/03/30 09:13:57;;;;;;;6.07;4.67;;;;;;;15.93;43.45;102404.38;4981378;28;20219;-73
2021/03/30 09:16:23;;;;;;;10.23;4.80;;;;;;;15.95;44.37;102402.56;4987234;28;20212;-73
2021/03/30 09:18:51;;;;;;;9.00;5.80;;;;;;;16.08;43.17;102404.06;4981699;28;21375;-73
2021/03/30 09:21:21;;;;;;;9.90;5.50;;;;;;;16.26;41.81;102413.31;4986190;28;20263;-73
2021/03/30 09:23:48;;;;;;;9.57;4.70;;;;;;;16.39;41.43;102399.00;4981757;28;20211;-73
2021/03/30 09:26:17;;;;;;;8.07;4.70;;;;;;;16.50;38.94;102411.03;4980909;28;20659;-72
2021/03/30 09:28:44;;;;;;;7.40;4.13;;;;;;;16.51;38.12;102404.88;4982787;28;20205;-72
2021/03/30 09:31:11;;;;;;;6.60;4.33;;;;;;;16.61;38.42;102407.28;4981747;28;20312;-73
2021/03/30 09:33:38;;;;;;;8.07;4.43;;;;;;;16.77;37.96;102404.28;4983005;28;20228;-73
2021/03/30 09:36:11;;;;;;;6.97;4.30;;;;;;;16.80;38.42;102405.06;4974831;28;20285;-73
2021/03/30 09:38:48;;;;;;;7.33;4.10;;;;;;;16.84;36.72;102408.53;4984430;28;20241;-73
2021/03/30 09:41:14;;;;;;;6.13;4.40;;;;;;;16.92;36.48;102405.69;4983240;28;20274;-73
2021/03/30 09:43:40;;;;;;;6.17;4.17;;;;;;;17.08;36.75;102403.53;4985709;28;20208;-73
2021/03/30 09:46:06;;;;;;;7.20;4.47;;;;;;;17.01;37.83;102394.94;4979000;28;20225;-73
2021/03/30 09:48:32;;;;;;;8.27;5.20;;;;;;;16.91;37.23;102402.22;4980904;28;20244;-73
2021/03/30 09:51:06;;;;;;;7.57;4.53;;;;;;;16.89;38.58;102392.63;4987512;28;20534;-73
2021/03/30 09:53:41;;;;;;;8.27;4.77;;;;;;;16.94;37.48;102393.34;4978370;28;20912;-72
2021/03/30 10:03:07;;;;;;;7.47;4.43;;;;;;;17.45;35.39;102390.28;4969987;28;20208;-73
2021/03/30 10:05:34;;;;;;;7.93;4.57;;;;;;;17.43;36.10;102392.09;4981458;28;20209;-73
2021/03/30 10:08:00;;;;;;;6.23;4.73;;;;;;;17.54;36.22;102397.09;4989097;28;20225;-73
2021/03/30 10:10:40;;;;;;;7.30;4.50;;;;;;;17.59;36.88;102389.91;4978419;28;20217;-73
2021/03/30 10:13:07;;;;;;;8.60;4.70;;;;;;;17.49;36.24;102393.72;4982469;28;20213;-73
2021/03/30 10:15:36;;;;;;;7.60;4.93;;;;;;;17.53;35.86;102393.56;4982229;28;20654;-73
2021/03/30 10:18:03;;;;;;;8.23;5.00;;;;;;;17.69;36.54;102391.38;4982754;28;20201;-72
2021/03/30 10:20:29;;;;;;;8.10;4.70;;;;;;;17.74;34.23;102397.38;4982308;28;20232;-72
2021/03/30 10:22:55;;;;;;;6.77;4.77;;;;;;;17.80;35.24;102385.81;4981357;28;20284;-73
2021/03/30 10:25:23;;;;;;;5.93;4.50;;;;;;;17.86;36.57;102379.53;4984452;28;20220;-72
2021/03/30 10:27:53;;;;;;;9.17;5.20;;;;;;;17.92;34.88;102381.97;4979717;28;20213;-72
2021/03/30 10:30:29;;;;;;;6.23;4.40;;;;;;;17.92;34.15;102382.84;4982259;28;20217;-73
2021/03/30 10:32:58;;;;;;;8.13;4.17;;;;;;;18.03;36.19;102371.97;4978603;28;20279;-72
2021/03/30 10:35:25;;;;;;;8.47;4.57;;;;;;;18.12;34.82;102373.47;4980179;28;20232;-73
2021/03/30 10:37:51;;;;;;;9.60;4.80;;;;;;;17.97;34.31;102374.78;4979636;28;20213;-72
2021/03/30 10:40:18;;;;;;;7.93;4.50;;;;;;;18.08;33.53;102374.47;4984158;28;20232;-72
2021/03/30 10:42:44;;;;;;;7.10;5.03;;;;;;;18.08;31.79;102374.47;4979850;28;20202;-72
2021/03/30 10:45:13;;;;;;;7.60;4.50;;;;;;;18.11;34.92;102359.41;4978946;28;20651;-72
2021/03/30 10:47:41;;;;;;;7.30;5.23;;;;;;;18.15;33.66;102358.41;4984335;28;20694;-73
2021/03/30 10:50:09;;;;;;;7.57;5.03;;;;;;;18.32;33.56;102355.22;4982129;28;20259;-73
2021/03/30 10:52:37;;;;;;;6.43;4.50;;;;;;;18.37;34.15;102351.59;4981800;28;20204;-73
2021/03/30 10:55:06;;;;;;;7.13;4.30;;;;;;;18.45;34.17;102353.09;4978166;28;20990;-73
2021/03/30 10:57:34;;;;;;;6.60;4.47;;;;;;;18.46;33.13;102352.16;4983678;28;20208;-72
2021/03/30 11:00:00;;;;;;;6.73;4.30;;;;;;;18.36;33.14;102348.06;4981417;28;20221;-73
2021/03/30 11:02:27;;;;;;;8.10;4.63;;;;;;;18.44;33.64;102342.56;4982406;28;20235;-73
2021/03/30 11:04:53;;;;;;;8.23;5.03;;;;;;;18.47;33.24;102345.13;4982858;28;20820;-73
2021/03/30 11:07:20;;;;;;;9.03;4.70;;;;;;;18.43;34.12;102333.75;4980971;28;20212;-73
2021/03/30 11:09:46;;;;;;;7.00;4.77;;;;;;;18.58;33.24;102335.06;4980456;28;20213;-73
2021/03/30 11:12:13;;;;;;;8.97;5.30;;;;;;;18.64;33.23;102334.00;4978922;28;20205;-73
2021/03/30 11:14:39;;;;;;;9.20;5.30;;;;;;;18.62;32.82;102330.53;4981844;28;20209;-72
2021/03/30 11:17:05;;;;;;;9.10;5.00;;;;;;;18.67;33.46;102329.47;4977068;28;20248;-73
2021/03/30 11:19:32;;;;;;;9.37;5.40;;;;;;;18.78;33.12;102325.59;4980053;28;20198;-73
2021/03/30 11:21:58;;;;;;;10.40;5.60;;;;;;;18.88;34.54;102314.69;4982284;28;20260;-73
2021/03/30 11:24:26;;;;;;;6.93;5.00;;;;;;;18.95;35.93;102318.00;4980125;28;20300;-72
2021/03/30 11:26:55;;;;;;;9.17;5.63;;;;;;;18.88;34.49;102317.34;4983411;28;20227;-73
2021/03/30 11:29:26;;;;;;;7.13;5.17;;;;;;;19.04;34.29;102309.75;4976125;28;20209;-72
2021/03/30 11:32:13;;;;;;;7.00;4.60;;;;;;;19.17;34.70;102311.94;4983803;28;20612;-73
2021/03/30 11:34:43;;;;;;;9.03;5.00;;;;;;;19.08;37.75;102299.91;4981619;28;20654;-73
2021/03/30 11:37:17;;;;;;;7.80;4.63;;;;;;;19.09;37.39;102297.22;4985265;28;20203;-74
2021/03/30 11:39:44;;;;;;;7.63;5.33;;;;;;;19.14;36.50;102290.91;4976058;28;20204;-73
2021/03/30 11:42:10;;;;;;;7.80;5.53;;;;;;;19.17;35.93;102290.81;4982502;28;20215;-73
2021/03/30 11:44:36;;;;;;;7.13;5.37;;;;;;;19.17;36.35;102293.44;4981997;28;20196;-73
2021/03/30 11:47:03;;;;;;;9.90;5.63;;;;;;;19.21;38.30;102276.56;4978609;28;20629;-73
2021/03/30 11:49:31;;;;;;;7.93;5.07;;;;;;;19.24;37.45;102279.09;4982932;28;20220;-73